sensor_id;sensor_type;location;lat;lon;timestamp;pressure;altitude;pressure_sealevel;temperature;humidity
36788;BME280;22738;45.560;9.434;2023-05-11T00:04:11;99492.03;;;14.42;100.00
36788;BME280;22738;45.560;9.434;2023-05-11T00:10:52;99485.66;;;14.35;100.00
36788;BME280;22738;45.560;9.434;2023-05-11T00:17:33;99481.28;;;14.35;100.00
36788;BME280;22738;45.560;9.434;2023-05-11T00:24:14;99483.75;;;14.37;100.00
36788;BME280;22738;45.560;9.434;2023-05-11T00:30:56;99466.44;;;14.36;100.00
36788;BME280;22738;45.560;9.434;2023-05-11T00:37:37;99452.22;;;14.40;100.00
36788;BME280;22738;45.560;9.434;2023-05-11T00:44:19;99443.97;;;14.35;100.00
36788;BME280;22738;45.560;9.434;2023-05-11T00:51:00;99431.59;;;14.37;100.00
36788;BME280;22738;45.560;9.434;2023-05-11T00:57:43;99424.19;;;14.32;100.00
36788;BME280;22738;45.560;9.434;2023-05-11T01:04:24;99431.75;;;14.35;100.00
36788;BME280;22738;45.560;9.434;2023-05-11T01:11:32;99429.00;;;14.37;100.00
36788;BME280;22738;45.560;9.434;2023-05-11T01:25:10;99425.44;;;14.38;100.00
36788;BME280;22738;45.560;9.434;2023-05-11T01:31:54;99430.13;;;14.44;100.00
36788;BME280;22738;45.560;9.434;2023-05-11T01:38:40;99418.75;;;14.45;100.00
36788;BME280;22738;45.560;9.434;2023-05-11T01:45:25;99406.66;;;14.44;100.00
36788;BME280;22738;45.560;9.434;2023-05-11T01:52:10;99412.81;;;14.43;100.00
36788;BME280;22738;45.560;9.434;2023-05-11T01:58:53;99415.56;;;14.41;100.00
36788;BME280;22738;45.560;9.434;2023-05-11T02:05:37;99413.09;;;14.40;100.00
36788;BME280;22738;45.560;9.434;2023-05-11T02:12:19;99415.16;;;14.46;100.00
36788;BME280;22738;45.560;9.434;2023-05-11T02:19:03;99409.13;;;14.45;100.00
36788;BME280;22738;45.560;9.434;2023-05-11T02:25:45;99411.63;;;14.47;100.00
36788;BME280;22738;45.560;9.434;2023-05-11T02:32:29;99404.50;;;14.49;100.00
36788;BME280;22738;45.560;9.434;2023-05-11T02:39:11;99410.09;;;14.44;100.00
36788;BME280;22738;45.560;9.434;2023-05-11T02:45:59;99407.34;;;14.46;100.00
36788;BME280;22738;45.560;9.434;2023-05-11T02:52:45;99403.38;;;14.42;100.00
36788;BME280;22738;45.560;9.434;2023-05-11T02:59:27;99399.78;;;14.43;100.00
36788;BME280;22738;45.560;9.434;2023-05-11T03:06:10;99395.66;;;14.31;100.00
36788;BME280;22738;45.560;9.434;2023-05-11T03:12:51;99392.31;;;14.28;100.00
36788;BME280;22738;45.560;9.434;2023-05-11T03:19:33;99395.88;;;14.27;100.00
36788;BME280;22738;45.560;9.434;2023-05-11T03:26:17;99392.81;;;14.22;100.00
36788;BME280;22738;45.560;9.434;2023-05-11T03:33:01;99389.00;;;14.26;100.00
36788;BME280;22738;45.560;9.434;2023-05-11T03:39:45;99388.78;;;14.29;100.00
36788;BME280;22738;45.560;9.434;2023-05-11T03:46:28;99381.06;;;14.28;100.00
36788;BME280;22738;45.560;9.434;2023-05-11T03:53:11;99376.34;;;14.22;100.00
36788;BME280;22738;45.560;9.434;2023-05-11T03:59:53;99379.69;;;14.24;100.00
36788;BME280;22738;45.560;9.434;2023-05-11T04:06:34;99375.00;;;14.27;100.00
36788;BME280;22738;45.560;9.434;2023-05-11T04:13:23;99376.41;;;14.32;100.00
36788;BME280;22738;45.560;9.434;2023-05-11T04:20:06;99375.47;;;14.33;100.00
36788;BME280;22738;45.560;9.434;2023-05-11T04:26:55;99372.34;;;14.39;100.00
36788;BME280;22738;45.560;9.434;2023-05-11T04:33:36;99372.06;;;14.42;100.00
36788;BME280;22738;45.560;9.434;2023-05-11T04:40:18;99371.28;;;14.51;100.00
36788;BME280;22738;45.560;9.434;2023-05-11T04:46:59;99372.22;;;14.50;100.00
36788;BME280;22738;45.560;9.434;2023-05-11T04:53:41;99367.47;;;14.64;100.00
36788;BME280;22738;45.560;9.434;2023-05-11T05:00:22;99368.16;;;14.76;100.00
36788;BME280;22738;45.560;9.434;2023-05-11T05:07:03;99372.16;;;14.89;100.00
36788;BME280;22738;45.560;9.434;2023-05-11T05:13:45;99372.72;;;15.02;100.00
36788;BME280;22738;45.560;9.434;2023-05-11T05:20:26;99361.97;;;15.25;100.00
36788;BME280;22738;45.560;9.434;2023-05-11T05:27:07;99354.50;;;15.78;100.00
36788;BME280;22738;45.560;9.434;2023-05-11T05:33:49;99339.91;;;16.39;100.00
36788;BME280;22738;45.560;9.434;2023-05-11T05:40:32;99333.00;;;17.18;100.00
36788;BME280;22738;45.560;9.434;2023-05-11T05:47:17;99323.88;;;17.65;100.00
36788;BME280;22738;45.560;9.434;2023-05-11T05:53:59;99318.44;;;18.34;100.00
36788;BME280;22738;45.560;9.434;2023-05-11T06:00:40;99316.94;;;18.82;100.00
36788;BME280;22738;45.560;9.434;2023-05-11T06:07:24;99318.84;;;18.47;100.00
36788;BME280;22738;45.560;9.434;2023-05-11T06:14:05;99320.53;;;18.65;100.00
36788;BME280;22738;45.560;9.434;2023-05-11T06:20:47;99303.63;;;18.83;100.00
36788;BME280;22738;45.560;9.434;2023-05-11T06:27:30;99311.31;;;18.61;100.00
36788;BME280;22738;45.560;9.434;2023-05-11T06:34:14;99307.47;;;18.39;100.00
36788;BME280;22738;45.560;9.434;2023-05-11T06:40:55;99307.97;;;18.42;100.00
36788;BME280;22738;45.560;9.434;2023-05-11T06:47:38;99305.34;;;18.34;100.00
36788;BME280;22738;45.560;9.434;2023-05-11T06:54:19;99313.88;;;18.36;100.00
36788;BME280;22738;45.560;9.434;2023-05-11T07:01:00;99304.84;;;18.39;100.00
36788;BME280;22738;45.560;9.434;2023-05-11T07:07:41;99304.13;;;18.95;100.00
36788;BME280;22738;45.560;9.434;2023-05-11T07:14:22;99302.66;;;18.92;100.00
36788;BME280;22738;45.560;9.434;2023-05-11T07:21:03;99309.38;;;18.79;100.00
36788;BME280;22738;45.560;9.434;2023-05-11T07:27:44;99304.97;;;19.03;100.00
36788;BME280;22738;45.560;9.434;2023-05-11T07:34:26;99313.84;;;19.02;100.00
36788;BME280;22738;45.560;9.434;2023-05-11T07:41:07;99309.41;;;19.19;100.00
36788;BME280;22738;45.560;9.434;2023-05-11T07:47:48;99300.16;;;19.63;100.00
36788;BME280;22738;45.560;9.434;2023-05-11T07:54:29;99301.47;;;19.59;100.00
36788;BME280;22738;45.560;9.434;2023-05-11T08:01:10;99301.16;;;20.48;100.00
36788;BME280;22738;45.560;9.434;2023-05-11T08:07:51;99303.47;;;20.96;100.00
36788;BME280;22738;45.560;9.434;2023-05-11T08:14:32;99297.16;;;20.52;100.00
36788;BME280;22738;45.560;9.434;2023-05-11T08:21:13;99289.50;;;20.65;100.00
36788;BME280;22738;45.560;9.434;2023-05-11T08:27:54;99288.19;;;21.29;100.00
36788;BME280;22738;45.560;9.434;2023-05-11T08:34:35;99291.63;;;21.67;100.00
36788;BME280;22738;45.560;9.434;2023-05-11T08:41:16;99289.44;;;22.14;100.00
36788;BME280;22738;45.560;9.434;2023-05-11T08:47:59;99287.81;;;21.69;100.00
36788;BME280;22738;45.560;9.434;2023-05-11T08:54:40;99282.94;;;21.58;100.00
36788;BME280;22738;45.560;9.434;2023-05-11T09:01:22;99277.22;;;21.55;100.00
36788;BME280;22738;45.560;9.434;2023-05-11T09:08:04;99292.38;;;21.38;100.00
36788;BME280;22738;45.560;9.434;2023-05-11T09:14:47;99290.66;;;21.30;100.00
36788;BME280;22738;45.560;9.434;2023-05-11T09:21:31;99287.53;;;20.90;100.00
36788;BME280;22738;45.560;9.434;2023-05-11T09:28:12;99284.63;;;20.99;100.00
36788;BME280;22738;45.560;9.434;2023-05-11T09:34:53;99286.03;;;21.76;100.00
36788;BME280;22738;45.560;9.434;2023-05-11T09:41:39;99282.81;;;22.39;100.00
36788;BME280;22738;45.560;9.434;2023-05-11T09:55:09;99285.97;;;22.85;100.00
36788;BME280;22738;45.560;9.434;2023-05-11T10:01:50;99278.13;;;22.20;100.00
36788;BME280;22738;45.560;9.434;2023-05-11T10:08:31;99278.25;;;22.33;100.00
36788;BME280;22738;45.560;9.434;2023-05-11T10:15:17;99269.06;;;22.44;100.00
36788;BME280;22738;45.560;9.434;2023-05-11T10:22:01;99263.75;;;22.80;100.00
36788;BME280;22738;45.560;9.434;2023-05-11T10:28:43;99266.34;;;22.58;100.00
36788;BME280;22738;45.560;9.434;2023-05-11T10:35:24;99265.50;;;22.94;100.00
36788;BME280;22738;45.560;9.434;2023-05-11T10:50:00;99262.84;;;22.94;100.00
36788;BME280;22738;45.560;9.434;2023-05-11T11:04:08;99249.56;;;23.36;100.00
36788;BME280;22738;45.560;9.434;2023-05-11T11:10:49;99239.31;;;24.01;100.00
36788;BME280;22738;45.560;9.434;2023-05-11T11:17:35;99238.19;;;23.42;100.00
36788;BME280;22738;45.560;9.434;2023-05-11T11:31:29;99221.91;;;23.38;97.29
36788;BME280;22738;45.560;9.434;2023-05-11T11:38:18;99222.63;;;22.98;97.02
36788;BME280;22738;45.560;9.434;2023-05-11T11:45:30;99219.09;;;22.91;99.16
36788;BME280;22738;45.560;9.434;2023-05-11T11:52:13;99212.72;;;23.07;96.55
36788;BME280;22738;45.560;9.434;2023-05-11T11:58:58;99200.78;;;23.45;89.60
36788;BME280;22738;45.560;9.434;2023-05-11T12:05:42;99199.41;;;22.94;96.96
36788;BME280;22738;45.560;9.434;2023-05-11T12:12:25;99200.97;;;22.88;100.00
36788;BME280;22738;45.560;9.434;2023-05-11T12:19:06;99210.78;;;22.31;100.00
36788;BME280;22738;45.560;9.434;2023-05-11T12:26:02;99203.91;;;21.06;100.00
36788;BME280;22738;45.560;9.434;2023-05-11T12:32:43;99200.91;;;21.68;100.00
36788;BME280;22738;45.560;9.434;2023-05-11T12:39:25;99201.81;;;21.60;100.00
36788;BME280;22738;45.560;9.434;2023-05-11T12:46:07;99205.00;;;21.56;100.00
36788;BME280;22738;45.560;9.434;2023-05-11T12:52:49;99199.25;;;21.08;100.00
36788;BME280;22738;45.560;9.434;2023-05-11T12:59:36;99203.38;;;20.51;100.00
36788;BME280;22738;45.560;9.434;2023-05-11T13:06:18;99213.63;;;20.23;100.00
36788;BME280;22738;45.560;9.434;2023-05-11T13:13:00;99214.81;;;19.19;100.00
36788;BME280;22738;45.560;9.434;2023-05-11T13:19:41;99220.09;;;17.89;100.00
36788;BME280;22738;45.560;9.434;2023-05-11T13:26:28;99218.09;;;16.89;100.00
36788;BME280;22738;45.560;9.434;2023-05-11T13:33:10;99217.38;;;15.99;100.00
36788;BME280;22738;45.560;9.434;2023-05-11T13:39:51;99221.22;;;15.50;100.00
36788;BME280;22738;45.560;9.434;2023-05-11T13:46:32;99219.47;;;15.68;100.00
36788;BME280;22738;45.560;9.434;2023-05-11T13:53:13;99199.63;;;16.03;100.00
36788;BME280;22738;45.560;9.434;2023-05-11T13:59:54;99190.50;;;15.89;100.00
36788;BME280;22738;45.560;9.434;2023-05-11T14:06:35;99183.59;;;16.33;100.00
36788;BME280;22738;45.560;9.434;2023-05-11T14:13:16;99173.69;;;16.27;100.00
36788;BME280;22738;45.560;9.434;2023-05-11T14:19:58;99158.63;;;16.82;100.00
36788;BME280;22738;45.560;9.434;2023-05-11T14:26:39;99162.47;;;17.55;100.00
36788;BME280;22738;45.560;9.434;2023-05-11T14:33:21;99142.22;;;17.81;100.00
36788;BME280;22738;45.560;9.434;2023-05-11T14:40:02;99140.50;;;18.06;100.00
36788;BME280;22738;45.560;9.434;2023-05-11T14:46:43;99138.22;;;18.43;100.00
36788;BME280;22738;45.560;9.434;2023-05-11T14:53:24;99151.53;;;18.58;100.00
36788;BME280;22738;45.560;9.434;2023-05-11T15:00:06;99156.78;;;18.49;100.00
36788;BME280;22738;45.560;9.434;2023-05-11T15:06:48;99153.78;;;19.01;100.00
36788;BME280;22738;45.560;9.434;2023-05-11T15:13:29;99157.28;;;19.32;100.00
36788;BME280;22738;45.560;9.434;2023-05-11T15:20:10;99158.59;;;19.44;100.00
36788;BME280;22738;45.560;9.434;2023-05-11T15:26:52;99157.88;;;19.03;100.00
36788;BME280;22738;45.560;9.434;2023-05-11T15:33:33;99175.63;;;18.61;100.00
36788;BME280;22738;45.560;9.434;2023-05-11T15:40:14;99183.63;;;18.35;100.00
36788;BME280;22738;45.560;9.434;2023-05-11T15:46:55;99179.19;;;18.20;100.00
36788;BME280;22738;45.560;9.434;2023-05-11T15:53:36;99182.34;;;18.39;100.00
36788;BME280;22738;45.560;9.434;2023-05-11T16:00:18;99189.53;;;18.21;100.00
36788;BME280;22738;45.560;9.434;2023-05-11T16:06:59;99201.03;;;18.36;100.00
36788;BME280;22738;45.560;9.434;2023-05-11T16:13:40;99208.13;;;17.86;100.00
36788;BME280;22738;45.560;9.434;2023-05-11T16:20:21;99216.56;;;17.56;100.00
36788;BME280;22738;45.560;9.434;2023-05-11T16:27:03;99222.91;;;17.28;100.00
36788;BME280;22738;45.560;9.434;2023-05-11T16:33:44;99229.28;;;17.51;100.00
36788;BME280;22738;45.560;9.434;2023-05-11T16:40:25;99247.16;;;17.55;100.00
36788;BME280;22738;45.560;9.434;2023-05-11T16:47:08;99240.69;;;17.42;100.00
36788;BME280;22738;45.560;9.434;2023-05-11T16:53:49;99228.91;;;17.46;100.00
36788;BME280;22738;45.560;9.434;2023-05-11T17:00:31;99226.28;;;17.46;100.00
36788;BME280;22738;45.560;9.434;2023-05-11T17:07:12;99231.44;;;17.30;100.00
36788;BME280;22738;45.560;9.434;2023-05-11T17:13:54;99239.16;;;17.05;100.00
36788;BME280;22738;45.560;9.434;2023-05-11T17:20:35;99246.78;;;16.81;100.00
36788;BME280;22738;45.560;9.434;2023-05-11T17:27:17;99252.69;;;16.83;100.00
36788;BME280;22738;45.560;9.434;2023-05-11T17:33:58;99256.09;;;16.76;100.00
36788;BME280;22738;45.560;9.434;2023-05-11T17:40:39;99254.06;;;16.70;100.00
36788;BME280;22738;45.560;9.434;2023-05-11T17:47:20;99256.94;;;16.49;100.00
36788;BME280;22738;45.560;9.434;2023-05-11T17:54:01;99263.06;;;16.40;100.00
36788;BME280;22738;45.560;9.434;2023-05-11T18:00:42;99273.31;;;16.33;100.00
36788;BME280;22738;45.560;9.434;2023-05-11T18:07:26;99264.34;;;16.36;100.00
36788;BME280;22738;45.560;9.434;2023-05-11T18:14:07;99277.75;;;16.33;100.00
36788;BME280;22738;45.560;9.434;2023-05-11T18:20:48;99284.00;;;16.40;100.00
36788;BME280;22738;45.560;9.434;2023-05-11T18:27:29;99287.59;;;16.39;100.00
36788;BME280;22738;45.560;9.434;2023-05-11T18:34:12;99311.03;;;16.31;100.00
36788;BME280;22738;45.560;9.434;2023-05-11T18:40:54;99307.75;;;16.29;100.00
36788;BME280;22738;45.560;9.434;2023-05-11T18:47:36;99320.69;;;16.30;100.00
36788;BME280;22738;45.560;9.434;2023-05-11T18:54:18;99332.66;;;16.33;100.00
36788;BME280;22738;45.560;9.434;2023-05-11T19:00:59;99342.41;;;16.31;100.00
36788;BME280;22738;45.560;9.434;2023-05-11T19:07:40;99337.50;;;16.28;100.00
36788;BME280;22738;45.560;9.434;2023-05-11T19:14:21;99338.19;;;16.30;100.00
36788;BME280;22738;45.560;9.434;2023-05-11T19:21:02;99363.09;;;16.24;100.00
36788;BME280;22738;45.560;9.434;2023-05-11T19:27:44;99371.19;;;16.04;100.00
36788;BME280;22738;45.560;9.434;2023-05-11T19:34:26;99392.31;;;15.83;100.00
36788;BME280;22738;45.560;9.434;2023-05-11T19:41:07;99395.22;;;15.70;100.00
36788;BME280;22738;45.560;9.434;2023-05-11T19:47:48;99410.63;;;15.64;100.00
36788;BME280;22738;45.560;9.434;2023-05-11T19:54:29;99428.25;;;15.62;100.00
36788;BME280;22738;45.560;9.434;2023-05-11T20:01:10;99427.25;;;15.34;100.00
36788;BME280;22738;45.560;9.434;2023-05-11T20:07:51;99440.09;;;15.47;100.00
36788;BME280;22738;45.560;9.434;2023-05-11T20:14:32;99446.63;;;15.22;100.00
36788;BME280;22738;45.560;9.434;2023-05-11T20:21:15;99460.19;;;14.97;100.00
36788;BME280;22738;45.560;9.434;2023-05-11T20:27:56;99457.19;;;14.92;100.00
36788;BME280;22738;45.560;9.434;2023-05-11T20:34:37;99460.06;;;14.89;100.00
36788;BME280;22738;45.560;9.434;2023-05-11T20:41:18;99466.25;;;14.97;100.00
36788;BME280;22738;45.560;9.434;2023-05-11T20:47:59;99477.38;;;14.90;100.00
36788;BME280;22738;45.560;9.434;2023-05-11T20:54:40;99476.25;;;14.83;100.00
36788;BME280;22738;45.560;9.434;2023-05-11T21:01:21;99478.19;;;14.81;100.00
36788;BME280;22738;45.560;9.434;2023-05-11T21:08:02;99478.00;;;14.73;100.00
36788;BME280;22738;45.560;9.434;2023-05-11T21:14:43;99482.81;;;14.77;100.00
36788;BME280;22738;45.560;9.434;2023-05-11T21:21:25;99485.03;;;14.82;100.00
36788;BME280;22738;45.560;9.434;2023-05-11T21:28:06;99474.59;;;14.82;100.00
36788;BME280;22738;45.560;9.434;2023-05-11T21:34:47;99494.31;;;14.65;100.00
36788;BME280;22738;45.560;9.434;2023-05-11T21:41:28;99486.91;;;14.70;100.00
36788;BME280;22738;45.560;9.434;2023-05-11T21:48:09;99486.50;;;14.75;100.00
36788;BME280;22738;45.560;9.434;2023-05-11T21:54:50;99483.66;;;14.78;100.00
36788;BME280;22738;45.560;9.434;2023-05-11T22:01:31;99488.63;;;14.90;100.00
36788;BME280;22738;45.560;9.434;2023-05-11T22:08:13;99500.53;;;14.74;100.00
36788;BME280;22738;45.560;9.434;2023-05-11T22:14:55;99502.84;;;14.77;100.00
36788;BME280;22738;45.560;9.434;2023-05-11T22:21:36;99509.66;;;14.59;100.00
36788;BME280;22738;45.560;9.434;2023-05-11T22:28:17;99524.81;;;14.65;100.00
36788;BME280;22738;45.560;9.434;2023-05-11T22:34:59;99521.94;;;14.47;100.00
36788;BME280;22738;45.560;9.434;2023-05-11T22:41:40;99516.56;;;14.18;100.00
36788;BME280;22738;45.560;9.434;2023-05-11T22:48:21;99518.47;;;14.16;100.00
36788;BME280;22738;45.560;9.434;2023-05-11T22:55:02;99514.66;;;14.20;100.00
36788;BME280;22738;45.560;9.434;2023-05-11T23:01:44;99524.81;;;14.23;100.00
36788;BME280;22738;45.560;9.434;2023-05-11T23:08:25;99527.06;;;14.07;100.00
36788;BME280;22738;45.560;9.434;2023-05-11T23:15:07;99526.84;;;13.99;100.00
36788;BME280;22738;45.560;9.434;2023-05-11T23:21:49;99519.38;;;13.85;100.00
36788;BME280;22738;45.560;9.434;2023-05-11T23:28:30;99521.59;;;13.90;100.00
36788;BME280;22738;45.560;9.434;2023-05-11T23:35:11;99522.91;;;13.84;100.00
36788;BME280;22738;45.560;9.434;2023-05-11T23:41:52;99523.16;;;13.81;100.00
36788;BME280;22738;45.560;9.434;2023-05-11T23:48:33;99517.47;;;13.87;100.00
36788;BME280;22738;45.560;9.434;2023-05-11T23:55:14;99517.91;;;13.92;100.00
